Time;durP1;ratioP1;P1;durP2;ratioP2;P2;SDS_P1;SDS_P2;PMS_P1;PMS_P2;Temp;Humidity;BMP_temperature;BMP_pressure;BME280_temperature;BME280_humidity;BME280_pressure;Samples;Min_cycle;Max_cycle;Signal;HPM_P1;HPM_P2
2021/06/13 00:01:58;;;;;;;;;;;;;;;;;;5116910;28;20311;-62
2021/06/13 00:04:24;;;;;;;;;;;;;;;;;;5117064;28;19960;-62
2021/06/13 00:06:52;;;;;;;;;;;;;;;;;;5116737;28;19951;-62
2021/06/13 00:09:18;;;;;;;;;;;;;;;;;;5116564;28;20238;-62
2021/06/13 00:11:43;;;;;;;;;;;;;;;;;;5116446;28;19911;-62
2021/06/13 00:14:08;;;;;;;;;;;;;;;;;;5116546;28;20408;-62
2021/06/13 00:16:34;;;;;;;;;;;;;;;;;;5116217;28;19918;-62
2021/06/13 00:18:59;;;;;;;;;;;;;;;;;;5098259;28;19904;-62
2021/06/13 00:21:24;;;;;;;;;;;;;;;;;;5116862;28;19907;-62
2021/06/13 00:23:50;;;;;;;;;;;;;;;;;;5098422;28;19904;-62
2021/06/13 00:26:17;;;;;;;;;;;;;;;;;;5098231;28;20003;-62
2021/06/13 00:28:44;;;;;;;;;;;;;;;;;;5116361;28;20331;-62
2021/06/13 00:31:09;;;;;;;;;;;;;;;;;;5115077;28;20250;-62
2021/06/13 00:33:36;;;;;;;;;;;;;;;;;;5081038;28;19948;-62
2021/06/13 00:36:01;;;;;;;;;;;;;;;;;;5115935;28;19962;-62
2021/06/13 00:38:27;;;;;;;;;;;;;;;;;;5116089;28;19946;-62
2021/06/13 00:40:52;;;;;;;;;;;;;;;;;;5097939;28;19994;-62
2021/06/13 00:43:18;;;;;;;;;;;;;;;;;;5097577;28;19904;-62
2021/06/13 00:45:43;;;;;;;;;;;;;;;;;;5097621;28;19912;-62
2021/06/13 00:48:08;;;;;;;;;;;;;;;;;;5097650;28;20342;-62
2021/06/13 00:50:34;;;;;;;;;;;;;;;;;;5115762;28;20247;-62
2021/06/13 00:52:59;;;;;;;;;;;;;;;;;;5115560;28;19911;-62
2021/06/13 00:55:25;;;;;;;;;;;;;;;;;;5115518;28;19907;-62
2021/06/13 00:57:50;;;;;;;;;;;;;;;;;;5097077;28;19908;-62
2021/06/13 01:00:16;;;;;;;;;;;;;;;;;;5116216;28;20465;-62
2021/06/13 01:02:41;;;;;;;;;;;;;;;;;;5115692;28;19904;-62
2021/06/13 01:05:09;;;;;;;;;;;;;;;;;;5097648;28;20037;-62
2021/06/13 01:07:35;;;;;;;;;;;;;;;;;;5115207;28;20018;-62
2021/06/13 01:10:01;;;;;;;;;;;;;;;;;;5097214;28;19998;-62
2021/06/13 01:12:26;;;;;;;;;;;;;;;;;;5096959;28;19950;-62
2021/06/13 01:15:00;;;;;;;;;;;;;;;;;;5097079;28;20361;-62
2021/06/13 01:17:27;;;;;;;;;;;;;;;;;;5097070;28;19912;-62
2021/06/13 01:19:54;;;;;;;;;;;;;;;;;;5096611;28;19991;-62
2021/06/13 01:22:19;;;;;;;;;;;;;;;;;;5097272;28;19943;-62
2021/06/13 01:24:45;;;;;;;;;;;;;;;;;;5096776;28;20299;-62
2021/06/13 01:27:10;;;;;;;;;;;;;;;;;;5096552;28;20380;-62
2021/06/13 01:29:36;;;;;;;;;;;;;;;;;;5096701;28;19903;-62
2021/06/13 01:32:02;;;;;;;;;;;;;;;;;;5114986;28;20277;-62
2021/06/13 01:34:27;;;;;;;;;;;;;;;;;;5114178;28;20002;-62
2021/06/13 01:36:53;;;;;;;;;;;;;;;;;;5079862;28;19970;-62
2021/06/13 01:39:23;;;;;;;;;;;;;;;;;;5079944;28;19908;-62
2021/06/13 01:41:50;;;;;;;;;;;;;;;;;;5096442;28;19914;-62
2021/06/13 01:44:16;;;;;;;;;;;;;;;;;;5096772;28;20041;-62
2021/06/13 01:46:41;;;;;;;;;;;;;;;;;;5114943;28;20350;-62
2021/06/13 01:49:11;;;;;;;;;;;;;;;;;;5096371;28;19904;-62
2021/06/13 01:51:36;;;;;;;;;;;;;;;;;;5096860;28;19908;-62
2021/06/13 01:54:02;;;;;;;;;;;;;;;;;;5114559;28;19910;-62
2021/06/13 01:56:30;;;;;;;;;;;;;;;;;;5096399;28;19915;-62
2021/06/13 01:58:56;;;;;;;;;;;;;;;;;;5096458;28;19908;-62
2021/06/13 02:01:30;;;;;;;;;;;;;;;;;;5096147;28;19947;-62
2021/06/13 02:03:56;;;;;;;;;;;;;;;;;;5096868;28;19908;-62
2021/06/13 02:06:42;;;;;;;;;;;;;;;;;;5113976;28;20003;-62
2021/06/13 02:09:08;;;;;;;;;;;;;;;;;;5096346;28;20381;-62
2021/06/13 02:11:33;;;;;;;;;;;;;;;;;;5114677;28;19907;-62
2021/06/13 02:14:01;;;;;;;;;;;;;;;;;;5079305;28;19991;-62
2021/06/13 02:16:33;;;;;;;;;;;;;;;;;;5096429;28;19911;-62
2021/06/13 02:19:00;;;;;;;;;;;;;;;;;;5096335;28;19911;-62
2021/06/13 02:21:32;;;;;;;;;;;;;;;;;;5096446;28;19904;-61
2021/06/13 02:23:58;;;;;;;;;;;;;;;;;;5096052;28;20375;-62
2021/06/13 02:26:23;;;;;;;;;;;;;;;;;;5079235;28;19904;-62
2021/06/13 02:28:49;;;;;;;;;;;;;;;;;;5096094;28;19967;-62
2021/06/13 02:31:15;;;;;;;;;;;;;;;;;;5096071;28;19903;-62
2021/06/13 02:33:40;;;;;;;;;;;;;;;;;;5095546;28;20000;-62
2021/06/13 02:36:07;;;;;;;;;;;;;;;;;;5096323;28;20363;-62
2021/06/13 02:38:34;;;;;;;;;;;;;;;;;;5078960;28;20008;-62
2021/06/13 02:40:59;;;;;;;;;;;;;;;;;;5096077;28;20043;-62
2021/06/13 02:43:25;;;;;;;;;;;;;;;;;;5095727;28;19936;-62
2021/06/13 02:45:50;;;;;;;;;;;;;;;;;;5114241;28;20274;-62
2021/06/13 02:48:16;;;;;;;;;;;;;;;;;;5113883;28;19908;-62
2021/06/13 02:50:43;;;;;;;;;;;;;;;;;;5078760;28;20247;-62
2021/06/13 02:53:10;;;;;;;;;;;;;;;;;;5114297;28;19915;-62
2021/06/13 02:55:35;;;;;;;;;;;;;;;;;;5117732;28;19908;-62
2021/06/13 02:58:01;;;;;;;;;;;;;;;;;;5099548;28;19919;-62
2021/06/13 03:00:26;;;;;;;;;;;;;;;;;;5099702;28;19911;-62
2021/06/13 03:02:52;;;;;;;;;;;;;;;;;;5117935;28;19960;-62
2021/06/13 03:05:17;;;;;;;;;;;;;;;;;;5099525;28;19942;-62
2021/06/13 03:07:42;;;;;;;;;;;;;;;;;;5099365;28;19966;-62
2021/06/13 03:10:08;;;;;;;;;;;;;;;;;;5099230;28;19911;-62
2021/06/13 03:12:34;;;;;;;;;;;;;;;;;;5099539;28;19911;-62
2021/06/13 03:15:00;;;;;;;;;;;;;;;;;;5099326;28;19903;-62
2021/06/13 03:17:29;;;;;;;;;;;;;;;;;;5099284;28;19951;-63
2021/06/13 03:19:57;;;;;;;;;;;;;;;;;;5117703;28;20357;-62
2021/06/13 03:22:23;;;;;;;;;;;;;;;;;;5099426;28;19914;-62
2021/06/13 03:24:48;;;;;;;;;;;;;;;;;;5099635;28;19903;-62
2021/06/13 03:27:14;;;;;;;;;;;;;;;;;;5098945;28;20284;-62
2021/06/13 03:29:40;;;;;;;;;;;;;;;;;;5082412;28;19903;-62
2021/06/13 03:32:06;;;;;;;;;;;;;;;;;;5082289;28;20277;-62
2021/06/13 03:34:31;;;;;;;;;;;;;;;;;;5098145;28;19908;-62
2021/06/13 03:36:57;;;;;;;;;;;;;;;;;;5099308;28;19915;-62
2021/06/13 03:39:23;;;;;;;;;;;;;;;;;;5098931;28;19904;-62
2021/06/13 03:41:49;;;;;;;;;;;;;;;;;;5098986;28;19907;-62
2021/06/13 03:44:14;;;;;;;;;;;;;;;;;;5099267;28;20041;-62
2021/06/13 03:46:40;;;;;;;;;;;;;;;;;;5117449;28;20277;-62
2021/06/13 03:49:05;;;;;;;;;;;;;;;;;;5117064;28;19943;-62
2021/06/13 03:51:30;;;;;;;;;;;;;;;;;;5116491;28;19912;-62
2021/06/13 03:53:56;;;;;;;;;;;;;;;;;;5116844;28;19904;-62
2021/06/13 03:56:21;;;;;;;;;;;;;;;;;;5098864;28;19911;-62
2021/06/13 03:58:50;;;;;;;;;;;;;;;;;;5116632;28;19999;-62
2021/06/13 04:01:18;;;;;;;;;;;;;;;;;;5116796;28;20271;-62
2021/06/13 04:03:44;;;;;;;;;;;;;;;;;;5116679;28;19904;-62
2021/06/13 04:06:09;;;;;;;;;;;;;;;;;;5116715;28;19957;-62
2021/06/13 04:08:35;;;;;;;;;;;;;;;;;;5116918;28;20342;-62
2021/06/13 04:11:00;;;;;;;;;;;;;;;;;;5116444;28;19915;-62
2021/06/13 04:13:26;;;;;;;;;;;;;;;;;;5116399;28;19931;-62
2021/06/13 04:15:51;;;;;;;;;;;;;;;;;;5116462;28;19915;-61
2021/06/13 04:18:16;;;;;;;;;;;;;;;;;;5116629;28;20342;-61
2021/06/13 04:20:42;;;;;;;;;;;;;;;;;;5116659;28;19908;-61
2021/06/13 04:23:08;;;;;;;;;;;;;;;;;;5116298;28;19903;-62
2021/06/13 04:25:33;;;;;;;;;;;;;;;;;;5116589;28;19968;-62
2021/06/13 04:27:59;;;;;;;;;;;;;;;;;;5098098;28;19907;-62
2021/06/13 04:30:24;;;;;;;;;;;;;;;;;;5116168;28;19911;-62
2021/06/13 04:32:50;;;;;;;;;;;;;;;;;;5116107;28;19911;-61
2021/06/13 04:35:15;;;;;;;;;;;;;;;;;;5115691;28;19911;-62
2021/06/13 04:37:41;;;;;;;;;;;;;;;;;;5116489;28;20235;-62
2021/06/13 04:40:06;;;;;;;;;;;;;;;;;;5115917;28;19908;-62
2021/06/13 04:42:32;;;;;;;;;;;;;;;;;;5115865;28;19904;-62
2021/06/13 04:44:58;;;;;;;;;;;;;;;;;;5115953;28;19957;-62
2021/06/13 04:47:29;;;;;;;;;;;;;;;;;;5115454;28;19908;-61
2021/06/13 04:49:55;;;;;;;;;;;;;;;;;;5113844;28;19908;-62
2021/06/13 04:52:21;;;;;;;;;;;;;;;;;;5095235;28;19953;-62
2021/06/13 04:54:47;;;;;;;;;;;;;;;;;;5095759;28;19961;-62
2021/06/13 04:57:12;;;;;;;;;;;;;;;;;;5095847;28;19912;-62
2021/06/13 04:59:38;;;;;;;;;;;;;;;;;;5095422;28;19912;-62
2021/06/13 05:02:03;;;;;;;;;;;;;;;;;;5095429;28;19911;-62
2021/06/13 05:04:28;;;;;;;;;;;;;;;;;;5095568;28;19943;-62
2021/06/13 05:06:54;;;;;;;;;;;;;;;;;;5095358;28;19904;-62
2021/06/13 05:09:19;;;;;;;;;;;;;;;;;;5095075;28;19908;-62
2021/06/13 05:11:45;;;;;;;;;;;;;;;;;;5095165;28;19927;-62
2021/06/13 05:14:10;;;;;;;;;;;;;;;;;;5095014;28;19908;-62
2021/06/13 05:16:38;;;;;;;;;;;;;;;;;;5076920;28;19908;-62
2021/06/13 05:19:03;;;;;;;;;;;;;;;;;;5076888;28;19912;-62
2021/06/13 05:21:28;;;;;;;;;;;;;;;;;;5094973;28;20396;-62
2021/06/13 05:23:54;;;;;;;;;;;;;;;;;;5076997;28;19908;-62
2021/06/13 05:26:19;;;;;;;;;;;;;;;;;;5094805;28;19961;-62
2021/06/13 05:28:45;;;;;;;;;;;;;;;;;;5094848;28;19931;-62
2021/06/13 05:31:11;;;;;;;;;;;;;;;;;;5095126;28;19939;-62
2021/06/13 05:33:37;;;;;;;;;;;;;;;;;;5094640;28;19950;-62
2021/06/13 05:36:03;;;;;;;;;;;;;;;;;;5074873;28;19951;-62
2021/06/13 05:38:28;;;;;;;;;;;;;;;;;;5074296;28;19959;-62
2021/06/13 05:40:54;;;;;;;;;;;;;;;;;;5074318;28;19905;-62
2021/06/13 05:43:20;;;;;;;;;;;;;;;;;;5083067;28;19912;-62
2021/06/13 05:45:46;;;;;;;;;;;;;;;;;;5080154;28;20270;-62
2021/06/13 05:48:12;;;;;;;;;;;;;;;;;;5073927;28;19912;-62
2021/06/13 05:50:37;;;;;;;;;;;;;;;;;;5088159;28;20471;-62
2021/06/13 05:53:02;;;;;;;;;;;;;;;;;;5094275;28;19908;-62
2021/06/13 05:55:28;;;;;;;;;;;;;;;;;;5094302;28;19911;-62
2021/06/13 05:57:55;;;;;;;;;;;;;;;;;;5094070;28;19935;-62
2021/06/13 06:00:20;;;;;;;;;;;;;;;;;;5092173;28;19908;-62
2021/06/13 06:02:45;;;;;;;;;;;;;;;;;;5086223;28;19974;-62
2021/06/13 06:05:12;;;;;;;;;;;;;;;;;;5091536;28;19912;-62
2021/06/13 06:07:39;;;;;;;;;;;;;;;;;;5091615;28;19911;-62
2021/06/13 06:10:04;;;;;;;;;;;;;;;;;;5091091;28;19907;-62
2021/06/13 06:12:30;;;;;;;;;;;;;;;;;;5091308;28;19908;-62
2021/06/13 06:14:55;;;;;;;;;;;;;;;;;;5089936;28;19969;-62
2021/06/13 06:17:21;;;;;;;;;;;;;;;;;;5091374;28;19912;-61
2021/06/13 06:19:46;;;;;;;;;;;;;;;;;;5084832;28;19959;-62
2021/06/13 06:22:12;;;;;;;;;;;;;;;;;;5078838;28;19938;-62
2021/06/13 06:24:37;;;;;;;;;;;;;;;;;;5087940;28;19953;-62
2021/06/13 06:27:03;;;;;;;;;;;;;;;;;;5091193;28;20003;-62
2021/06/13 06:29:28;;;;;;;;;;;;;;;;;;5093420;28;19949;-62
2021/06/13 06:31:54;;;;;;;;;;;;;;;;;;5095269;28;19995;-62
2021/06/13 06:34:20;;;;;;;;;;;;;;;;;;5100799;28;19912;-62
2021/06/13 06:36:45;;;;;;;;;;;;;;;;;;5109742;28;19999;-61
2021/06/13 06:39:11;;;;;;;;;;;;;;;;;;5115241;28;19920;-63
2021/06/13 06:41:36;;;;;;;;;;;;;;;;;;5115101;28;20350;-64
2021/06/13 06:44:02;;;;;;;;;;;;;;;;;;5114620;28;19912;-63
2021/06/13 06:46:27;;;;;;;;;;;;;;;;;;5114751;28;20274;-63
2021/06/13 06:48:52;;;;;;;;;;;;;;;;;;5108575;28;19912;-63
2021/06/13 06:51:18;;;;;;;;;;;;;;;;;;5102718;28;19912;-63
2021/06/13 06:53:43;;;;;;;;;;;;;;;;;;5104020;28;19918;-63
2021/06/13 06:56:10;;;;;;;;;;;;;;;;;;5094544;28;19908;-63
2021/06/13 06:58:35;;;;;;;;;;;;;;;;;;5076601;28;19908;-63
2021/06/13 07:01:00;;;;;;;;;;;;;;;;;;5094278;28;19918;-63
2021/06/13 07:03:26;;;;;;;;;;;;;;;;;;5094169;28;20040;-63
2021/06/13 07:05:51;;;;;;;;;;;;;;;;;;5076337;28;19915;-63
2021/06/13 07:08:17;;;;;;;;;;;;;;;;;;5093952;28;19915;-63
2021/06/13 07:10:42;;;;;;;;;;;;;;;;;;5093748;28;20278;-63
2021/06/13 07:13:08;;;;;;;;;;;;;;;;;;5059614;28;19904;-63
2021/06/13 07:15:33;;;;;;;;;;;;;;;;;;5075994;28;19912;-63
2021/06/13 07:17:58;;;;;;;;;;;;;;;;;;5093950;28;19919;-63
2021/06/13 07:20:24;;;;;;;;;;;;;;;;;;5094005;28;20067;-63
2021/06/13 07:22:49;;;;;;;;;;;;;;;;;;5094028;28;19904;-62
2021/06/13 07:25:15;;;;;;;;;;;;;;;;;;5094007;28;19908;-63
2021/06/13 07:27:40;;;;;;;;;;;;;;;;;;5101289;28;19939;-62
2021/06/13 07:30:06;;;;;;;;;;;;;;;;;;5093989;28;19918;-61
2021/06/13 07:32:31;;;;;;;;;;;;;;;;;;5093949;28;19908;-61
2021/06/13 07:34:57;;;;;;;;;;;;;;;;;;5093533;28;19920;-61
2021/06/13 07:37:22;;;;;;;;;;;;;;;;;;5093769;28;20678;-61
2021/06/13 07:39:48;;;;;;;;;;;;;;;;;;5093271;28;19912;-61
2021/06/13 07:42:13;;;;;;;;;;;;;;;;;;5093992;28;19911;-60
2021/06/13 07:44:39;;;;;;;;;;;;;;;;;;5093817;28;19912;-61
2021/06/13 07:47:04;;;;;;;;;;;;;;;;;;5094005;28;20002;-61
2021/06/13 07:49:30;;;;;;;;;;;;;;;;;;5093819;28;19912;-60
2021/06/13 07:51:55;;;;;;;;;;;;;;;;;;5076100;28;19908;-65
2021/06/13 07:54:21;;;;;;;;;;;;;;;;;;5094034;28;19914;-63
2021/06/13 07:56:47;;;;;;;;;;;;;;;;;;5076008;28;19908;-63
2021/06/13 07:59:13;;;;;;;;;;;;;;;;;;5066372;28;20281;-63
2021/06/13 08:01:38;;;;;;;;;;;;;;;;;;5105325;28;19911;-62
2021/06/13 08:04:03;;;;;;;;;;;;;;;;;;5095866;28;19908;-63
2021/06/13 08:06:29;;;;;;;;;;;;;;;;;;5114515;28;19954;-61
2021/06/13 08:08:54;;;;;;;;;;;;;;;;;;5096292;28;20391;-62
2021/06/13 08:11:20;;;;;;;;;;;;;;;;;;5114418;28;20013;-62
2021/06/13 08:13:45;;;;;;;;;;;;;;;;;;5114253;28;20562;-62
2021/06/13 08:16:11;;;;;;;;;;;;;;;;;;5106991;28;19911;-64
2021/06/13 08:18:37;;;;;;;;;;;;;;;;;;5102636;28;19916;-62
2021/06/13 08:21:02;;;;;;;;;;;;;;;;;;5095934;28;19961;-62
2021/06/13 08:23:30;;;;;;;;;;;;;;;;;;5114263;28;20016;-62
2021/06/13 08:25:56;;;;;;;;;;;;;;;;;;5085531;28;19946;-62
2021/06/13 08:28:21;;;;;;;;;;;;;;;;;;5104609;28;19954;-62
2021/06/13 08:30:46;;;;;;;;;;;;;;;;;;5097523;28;20008;-63
2021/06/13 08:33:13;;;;;;;;;;;;;;;;;;5098891;28;20625;-62
2021/06/13 08:35:38;;;;;;;;;;;;;;;;;;5092534;28;19916;-61
2021/06/13 08:38:05;;;;;;;;;;;;;;;;;;5097583;28;20285;-61
2021/06/13 08:40:31;;;;;;;;;;;;;;;;;;5082215;28;19915;-61
2021/06/13 08:42:56;;;;;;;;;;;;;;;;;;5100545;28;20281;-61
2021/06/13 08:45:22;;;;;;;;;;;;;;;;;;5111967;28;19912;-61
2021/06/13 08:47:47;;;;;;;;;;;;;;;;;;5114446;28;19957;-61
2021/06/13 08:50:13;;;;;;;;;;;;;;;;;;5112365;28;19904;-61
2021/06/13 08:52:38;;;;;;;;;;;;;;;;;;5115192;28;20281;-62
2021/06/13 08:55:05;;;;;;;;;;;;;;;;;;5116045;28;19904;-62
2021/06/13 08:57:30;;;;;;;;;;;;;;;;;;5115948;28;19964;-62
2021/06/13 08:59:56;;;;;;;;;;;;;;;;;;5115794;28;19908;-62
2021/06/13 09:02:22;;;;;;;;;;;;;;;;;;5116153;28;19912;-62
2021/06/13 09:04:48;;;;;;;;;;;;;;;;;;5115784;28;19911;-62
2021/06/13 09:07:13;;;;;;;;;;;;;;;;;;5115687;28;19912;-61
2021/06/13 09:09:39;;;;;;;;;;;;;;;;;;5115404;28;19963;-61
2021/06/13 09:12:04;;;;;;;;;;;;;;;;;;5115355;28;19908;-61
2021/06/13 09:14:32;;;;;;;;;;;;;;;;;;5115500;28;19938;-61
2021/06/13 09:16:57;;;;;;;;;;;;;;;;;;5115647;28;19908;-61
2021/06/13 09:19:23;;;;;;;;;;;;;;;;;;5115477;28;19903;-61
2021/06/13 09:25:04;;;;;;;;;;;;;;;;;;5115483;28;19930;-61
2021/06/13 09:30:47;;;;;;;;;;;;;;;;;;5115437;28;19960;-61
2021/06/13 09:39:57;;;;;;;;;;;;;;;;;;5114227;28;19958;-61
2021/06/13 09:45:25;;;;;;;;;;;;;;;;;;5115107;28;19915;-61
2021/06/13 09:50:54;;;;;;;;;;;;;;;;;;5115045;28;20272;-61
2021/06/13 09:56:23;;;;;;;;;;;;;;;;;;5114964;28;19940;-61
2021/06/13 10:01:52;;;;;;;;;;;;;;;;;;5114862;28;19919;-61
2021/06/13 10:07:23;;;;;;;;;;;;;;;;;;5115028;28;20385;-61
2021/06/13 10:12:51;;;;;;;;;;;;;;;;;;5114888;28;19992;-62
2021/06/13 10:18:20;;;;;;;;;;;;;;;;;;5114579;28;19934;-61
2021/06/13 10:23:49;;;;;;;;;;;;;;;;;;5114600;28;19915;-61
2021/06/13 10:29:18;;;;;;;;;;;;;;;;;;5114553;28;20016;-61
2021/06/13 13:48:39;;;;;;;;;;;;;;;;;;5108911;28;20335;-61
2021/06/13 13:51:04;;;;;;;;;;;;;;;;;;5086711;28;19998;-61
2021/06/13 13:53:31;;;;;;;;;;;;;;;;;;5111905;28;20261;-61
2021/06/13 13:55:56;;;;;;;;;;;;;;;;;;5111526;28;19907;-62
2021/06/13 13:58:22;;;;;;;;;;;;;;;;;;5111477;28;20373;-62
2021/06/13 14:00:50;;;;;;;;;;;;;;;;;;5111486;28;20432;-62
2021/06/13 14:03:16;;;;;;;;;;;;;;;;;;5093482;28;19904;-61
2021/06/13 14:05:42;;;;;;;;;;;;;;;;;;5111079;28;20412;-61
2021/06/13 14:08:07;;;;;;;;;;;;;;;;;;5093134;28;19990;-61
2021/06/13 14:10:33;;;;;;;;;;;;;;;;;;5111358;28;19917;-61
2021/06/13 14:12:58;;;;;;;;;;;;;;;;;;5111296;28;19946;-61
2021/06/13 14:15:23;;;;;;;;;;;;;;;;;;5111479;28;19911;-61
2021/06/13 14:17:49;;;;;;;;;;;;;;;;;;5111538;28;19918;-62
2021/06/13 14:20:15;;;;;;;;;;;;;;;;;;5092844;28;19915;-61
2021/06/13 14:22:41;;;;;;;;;;;;;;;;;;5111159;28;19938;-61
2021/06/13 14:25:06;;;;;;;;;;;;;;;;;;5111065;28;20631;-61
2021/06/13 14:27:31;;;;;;;;;;;;;;;;;;5111169;28;20373;-61
2021/06/13 14:29:57;;;;;;;;;;;;;;;;;;5111032;28;19907;-61
2021/06/13 14:32:23;;;;;;;;;;;;;;;;;;5111104;28;19903;-61
2021/06/13 14:34:49;;;;;;;;;;;;;;;;;;5111150;28;19945;-61
2021/06/13 14:37:15;;;;;;;;;;;;;;;;;;5111407;28;19958;-61
2021/06/13 14:39:40;;;;;;;;;;;;;;;;;;5111229;28;19919;-61
2021/06/13 14:42:06;;;;;;;;;;;;;;;;;;5111089;28;19907;-61
2021/06/13 14:44:31;;;;;;;;;;;;;;;;;;5111323;28;19908;-61
2021/06/13 14:46:57;;;;;;;;;;;;;;;;;;5110571;28;19912;-61
2021/06/13 14:49:22;;;;;;;;;;;;;;;;;;5114239;28;19911;-61
2021/06/13 14:51:48;;;;;;;;;;;;;;;;;;5100162;28;19908;-61
2021/06/13 14:54:13;;;;;;;;;;;;;;;;;;5100402;28;19907;-61
2021/06/13 14:56:38;;;;;;;;;;;;;;;;;;5118180;28;19951;-61
2021/06/13 14:59:04;;;;;;;;;;;;;;;;;;5109566;28;19922;-61
2021/06/13 15:01:29;;;;;;;;;;;;;;;;;;5108614;28;19914;-62
2021/06/13 15:03:58;;;;;;;;;;;;;;;;;;5108147;28;19915;-61
2021/06/13 15:06:25;;;;;;;;;;;;;;;;;;5106337;28;19950;-61
2021/06/13 15:08:51;;;;;;;;;;;;;;;;;;5102972;28;19966;-61
2021/06/13 15:11:16;;;;;;;;;;;;;;;;;;5106302;28;20365;-61
2021/06/13 15:13:42;;;;;;;;;;;;;;;;;;5108017;28;19954;-61
2021/06/13 15:16:07;;;;;;;;;;;;;;;;;;5106333;28;20354;-62
2021/06/13 15:18:32;;;;;;;;;;;;;;;;;;5106591;28;19911;-61
2021/06/13 15:20:58;;;;;;;;;;;;;;;;;;5107699;28;19904;-61
2021/06/13 15:23:23;;;;;;;;;;;;;;;;;;5105531;28;20329;-61
2021/06/13 15:25:49;;;;;;;;;;;;;;;;;;5107150;28;19992;-61
2021/06/13 15:28:14;;;;;;;;;;;;;;;;;;5107272;28;20289;-61
2021/06/13 15:30:40;;;;;;;;;;;;;;;;;;5100200;28;19904;-62
2021/06/13 15:33:07;;;;;;;;;;;;;;;;;;5096825;28;20015;-61
2021/06/13 15:35:33;;;;;;;;;;;;;;;;;;5078869;28;19919;-61
2021/06/13 15:37:58;;;;;;;;;;;;;;;;;;5097146;28;19912;-61
2021/06/13 15:40:24;;;;;;;;;;;;;;;;;;5079220;28;20354;-61
2021/06/13 15:42:49;;;;;;;;;;;;;;;;;;5096578;28;20108;-57
2021/06/13 15:45:15;;;;;;;;;;;;;;;;;;5079109;28;19949;-61
2021/06/13 15:47:41;;;;;;;;;;;;;;;;;;5053126;28;20007;-61
2021/06/13 15:50:09;;;;;;;;;;;;;;;;;;5055509;28;19951;-61
2021/06/13 15:52:34;;;;;;;;;;;;;;;;;;5056062;28;20390;-61
2021/06/13 15:55:00;;;;;;;;;;;;;;;;;;5046915;28;19948;-61
2021/06/13 15:57:27;;;;;;;;;;;;;;;;;;5053915;28;19912;-62
2021/06/13 15:59:54;;;;;;;;;;;;;;;;;;5053484;28;20347;-63
2021/06/13 16:02:24;;;;;;;;;;;;;;;;;;5053485;28;20636;-61
2021/06/13 16:04:49;;;;;;;;;;;;;;;;;;5053330;28;19916;-62
2021/06/13 16:07:15;;;;;;;;;;;;;;;;;;5053501;28;20309;-61
2021/06/13 16:09:40;;;;;;;;;;;;;;;;;;5051839;28;20023;-61
2021/06/13 16:12:06;;;;;;;;;;;;;;;;;;5053271;28;19912;-61
2021/06/13 16:14:32;;;;;;;;;;;;;;;;;;5052980;28;20317;-62
2021/06/13 16:16:57;;;;;;;;;;;;;;;;;;5053157;28;19915;-61
2021/06/13 16:19:23;;;;;;;;;;;;;;;;;;5053771;28;20573;-61
2021/06/13 16:21:48;;;;;;;;;;;;;;;;;;5053339;28;19904;-61
2021/06/13 16:24:13;;;;;;;;;;;;;;;;;;5053350;28;19912;-62
2021/06/13 16:26:39;;;;;;;;;;;;;;;;;;5052747;28;19908;-62
2021/06/13 16:29:04;;;;;;;;;;;;;;;;;;5053138;28;19908;-61
2021/06/13 16:31:30;;;;;;;;;;;;;;;;;;5053012;28;19912;-61
2021/06/13 16:33:55;;;;;;;;;;;;;;;;;;5052989;28;20362;-61
2021/06/13 16:36:21;;;;;;;;;;;;;;;;;;5053158;28;20555;-61
2021/06/13 16:38:46;;;;;;;;;;;;;;;;;;5051078;28;20413;-61
2021/06/13 16:41:12;;;;;;;;;;;;;;;;;;5052928;28;19919;-60
2021/06/13 16:43:37;;;;;;;;;;;;;;;;;;5052835;28;20367;-62
2021/06/13 16:46:02;;;;;;;;;;;;;;;;;;5052190;28;19916;-60
2021/06/13 16:48:28;;;;;;;;;;;;;;;;;;5075090;28;19961;-61
2021/06/13 16:50:53;;;;;;;;;;;;;;;;;;5092168;28;19912;-60
2021/06/13 16:53:19;;;;;;;;;;;;;;;;;;5111067;28;19914;-60
2021/06/13 16:55:44;;;;;;;;;;;;;;;;;;5112938;28;20422;-61
2021/06/13 16:58:14;;;;;;;;;;;;;;;;;;5113090;28;19919;-62
2021/06/13 17:00:39;;;;;;;;;;;;;;;;;;5094568;28;19959;-62
2021/06/13 17:03:05;;;;;;;;;;;;;;;;;;5108060;28;20004;-62
2021/06/13 17:05:30;;;;;;;;;;;;;;;;;;5073776;28;20261;-62
2021/06/13 17:07:56;;;;;;;;;;;;;;;;;;5092321;28;19987;-62
2021/06/13 17:10:21;;;;;;;;;;;;;;;;;;5092187;28;20277;-62
2021/06/13 17:12:47;;;;;;;;;;;;;;;;;;5091563;28;19915;-62
2021/06/13 17:15:12;;;;;;;;;;;;;;;;;;5091469;28;19966;-62
2021/06/13 17:17:37;;;;;;;;;;;;;;;;;;5073882;28;19908;-61
2021/06/13 17:20:04;;;;;;;;;;;;;;;;;;5091644;28;19912;-62
2021/06/13 17:22:30;;;;;;;;;;;;;;;;;;5092096;28;20301;-62
2021/06/13 17:25:00;;;;;;;;;;;;;;;;;;5091672;28;20380;-61
2021/06/13 17:27:25;;;;;;;;;;;;;;;;;;5091971;28;20342;-61
2021/06/13 17:29:51;;;;;;;;;;;;;;;;;;5094995;28;19911;-62
2021/06/13 17:32:16;;;;;;;;;;;;;;;;;;5091752;28;19976;-62
2021/06/13 17:34:42;;;;;;;;;;;;;;;;;;5091602;28;19977;-62
2021/06/13 17:37:07;;;;;;;;;;;;;;;;;;5091761;28;20007;-62
2021/06/13 17:39:32;;;;;;;;;;;;;;;;;;5091962;28;20010;-62
2021/06/13 17:41:58;;;;;;;;;;;;;;;;;;5091914;28;19907;-63
2021/06/13 17:44:27;;;;;;;;;;;;;;;;;;5091521;28;19999;-62
2021/06/13 17:46:52;;;;;;;;;;;;;;;;;;5091108;28;19904;-61
2021/06/13 17:49:18;;;;;;;;;;;;;;;;;;5073179;28;20419;-62
2021/06/13 17:51:43;;;;;;;;;;;;;;;;;;5090491;28;19908;-62
2021/06/13 17:54:08;;;;;;;;;;;;;;;;;;5072872;28;19963;-62
2021/06/13 17:56:34;;;;;;;;;;;;;;;;;;5090561;28;19911;-62
2021/06/13 17:58:59;;;;;;;;;;;;;;;;;;5090932;28;20378;-62
2021/06/13 18:01:25;;;;;;;;;;;;;;;;;;5091062;28;20584;-62
2021/06/13 18:03:50;;;;;;;;;;;;;;;;;;5086360;28;20006;-62
2021/06/13 18:06:15;;;;;;;;;;;;;;;;;;5090402;28;20332;-62
2021/06/13 18:08:41;;;;;;;;;;;;;;;;;;5108082;28;19920;-62
2021/06/13 18:11:07;;;;;;;;;;;;;;;;;;5110954;28;19915;-62
2021/06/13 18:13:33;;;;;;;;;;;;;;;;;;5111407;28;19916;-62
2021/06/13 18:15:58;;;;;;;;;;;;;;;;;;5111605;28;19927;-61
2021/06/13 18:18:23;;;;;;;;;;;;;;;;;;5111460;28;19923;-62
2021/06/13 18:20:49;;;;;;;;;;;;;;;;;;5111778;28;19908;-62
2021/06/13 18:23:14;;;;;;;;;;;;;;;;;;5093425;28;19998;-61
2021/06/13 18:25:39;;;;;;;;;;;;;;;;;;5111720;28;19908;-61
2021/06/13 18:28:05;;;;;;;;;;;;;;;;;;5111840;28;19961;-61
2021/06/13 18:30:37;;;;;;;;;;;;;;;;;;5110870;28;19912;-61
2021/06/13 18:49:51;;;;;;;6.85;2.03;;;;;;;;;;5148582;27;20356;-58
2021/06/13 18:52:17;;;;;;;2.63;1.42;;;;;;;;;;5127598;28;20527;-58
2021/06/13 18:54:42;;;;;;;2.47;1.70;;;;;;;;;;5127516;28;20374;-58
2021/06/13 18:57:08;;;;;;;4.07;1.60;;;;;;;;;;5127600;27;20026;-58
2021/06/13 18:59:33;;;;;;;5.15;1.80;;;;;;;;;;5127574;27;20528;-58
2021/06/13 19:04:25;;;;;;;2.20;1.50;;;;;;;;;;5121319;27;20406;-61
2021/06/13 19:06:51;;;;;;;3.78;2.05;;;;;;;;;;5088486;28;20058;-61
2021/06/13 19:09:16;;;;;;;3.88;2.17;;;;;;;;;;5087300;28;20531;-63
2021/06/13 19:11:43;;;;;;;2.00;1.80;;;;;;;;;;5087388;28;20040;-64
2021/06/13 19:14:08;;;;;;;4.57;1.90;;;;;;;;;;5087330;28;20024;-60
2021/06/13 19:16:33;;;;;;;3.42;1.85;;;;;;;;;;5086952;28;20092;-62
2021/06/13 19:18:59;;;;;;;3.95;1.80;;;;;;;;;;5087407;28;20032;-69
2021/06/13 19:21:25;;;;;;;3.58;2.15;;;;;;;;;;5087198;28;20119;-65
2021/06/13 19:23:50;;;;;;;4.20;1.70;;;;;;;;;;5086931;28;20158;-62
2021/06/13 19:26:16;;;;;;;2.80;1.92;;;;;;;;;;5086972;28;20475;-71
2021/06/13 19:28:41;;;;;;;4.10;2.00;;;;;;;;;;5087321;28;20488;-62
2021/06/13 19:31:08;;;;;;;3.22;1.80;;;;;;;;;;5086996;28;20029;-63
2021/06/13 19:33:34;;;;;;;4.75;1.70;;;;;;;;;;5086965;28;20081;-63
2021/06/13 19:36:00;;;;;;;2.65;1.30;;;;;;;;;;5084387;28;20186;-63
2021/06/13 19:38:25;;;;;;;4.18;1.67;;;;;;;;;;5085344;28;20111;-63
2021/06/13 19:40:52;;;;;;;3.25;1.52;;;;;;;;;;5083735;28;20032;-62
2021/06/13 19:43:18;;;;;;;2.50;1.75;;;;;;;;;;5085200;28;20481;-62
2021/06/13 19:45:44;;;;;;;1.98;1.55;;;;;;;;;;5085323;28;20058;-63
2021/06/13 19:48:09;;;;;;;3.75;1.70;;;;;;;;;;5086622;28;20071;-62
2021/06/13 19:50:35;;;;;;;2.42;1.70;;;;;;;;;;5086699;28;20471;-63
2021/06/13 19:53:00;;;;;;;4.75;2.38;;;;;;;;;;5086630;28;20407;-63
2021/06/13 19:55:27;;;;;;;2.60;1.40;;;;;;;;;;5086422;28;20028;-63
2021/06/13 19:57:53;;;;;;;2.78;2.13;;;;;;;;;;5086679;28;20016;-63
2021/06/13 20:00:19;;;;;;;3.58;1.67;;;;;;;;;;5086464;28;20100;-63
2021/06/13 20:02:45;;;;;;;3.33;1.60;;;;;;;;;;5085803;28;20051;-63
2021/06/13 20:05:11;;;;;;;1.98;1.42;;;;;;;;;;5086341;28;20035;-63
2021/06/13 20:07:37;;;;;;;1.73;1.40;;;;;;;;;;5086145;28;20035;-63
2021/06/13 20:10:04;;;;;;;2.65;1.67;;;;;;;;;;5086235;28;20039;-63
2021/06/13 20:12:30;;;;;;;2.58;1.45;;;;;;;;;;5086509;28;20021;-62
2021/06/13 20:14:56;;;;;;;2.83;1.52;;;;;;;;;;5077235;28;20037;-63
2021/06/13 20:17:21;;;;;;;3.25;2.00;;;;;;;;;;5073942;28;20017;-63
2021/06/13 20:19:47;;;;;;;3.40;1.60;;;;;;;;;;5075444;28;20390;-62
2021/06/13 20:22:12;;;;;;;2.50;1.70;;;;;;;;;;5075674;28;20024;-62
2021/06/13 20:24:38;;;;;;;3.65;1.50;;;;;;;;;;5075623;28;20058;-62
2021/06/13 20:27:04;;;;;;;3.53;1.55;;;;;;;;;;5076197;28;20021;-63
2021/06/13 20:29:29;;;;;;;4.07;1.92;;;;;;;;;;5074789;28;20047;-62
2021/06/13 20:31:57;;;;;;;3.60;1.95;;;;;;;;;;5076001;28;20462;-62
2021/06/13 20:34:22;;;;;;;4.13;1.42;;;;;;;;;;5075887;28;20092;-62
2021/06/13 20:36:48;;;;;;;2.25;1.60;;;;;;;;;;5075869;28;20021;-62